Time;durP1;ratioP1;P1;durP2;ratioP2;P2;SDS_P1;SDS_P2;PMS_P1;PMS_P2;Temp;Humidity;BMP_temperature;BMP_pressure;BME280_temperature;BME280_humidity;BME280_pressure;Samples;Min_cycle;Max_cycle;Signal;HPM_P1;HPM_P2
2021/07/31 00:01:06;;;;;;;13.40;7.97;;;;;;;15.13;61.34;100307.52;1778045;80;21562;-87
2021/07/31 00:03:32;;;;;;;16.12;8.50;;;;;;;15.12;61.35;100309.70;1777670;80;21071;-87
2021/07/31 00:05:59;;;;;;;20.10;8.90;;;;;;;15.10;61.35;100307.95;1753302;80;21514;-87
2021/07/31 00:08:26;;;;;;;17.70;9.45;;;;;;;15.07;61.44;100305.30;1755484;80;21764;-87
2021/07/31 00:10:53;;;;;;;17.75;9.88;;;;;;;15.02;61.49;100301.78;1777712;80;21059;-88
2021/07/31 00:13:20;;;;;;;16.85;9.98;;;;;;;14.99;61.65;100303.97;1750366;80;21100;-87
2021/07/31 00:15:46;;;;;;;17.77;9.45;;;;;;;14.97;61.62;100309.72;1753747;80;21021;-87
2021/07/31 00:18:13;;;;;;;11.20;8.08;;;;;;;14.96;61.69;100305.32;1777388;79;21028;-87
2021/07/31 00:20:40;;;;;;;16.93;8.15;;;;;;;14.93;61.82;100302.20;1777313;80;21876;-88
2021/07/31 00:23:07;;;;;;;12.07;8.00;;;;;;;14.92;61.85;100310.16;1777369;80;21036;-87
2021/07/31 00:25:33;;;;;;;14.85;9.05;;;;;;;14.90;61.94;100307.95;1753580;80;21732;-86
2021/07/31 00:28:00;;;;;;;13.98;7.65;;;;;;;14.87;62.06;100314.59;1750725;80;21021;-86
2021/07/31 00:30:28;;;;;;;14.63;8.33;;;;;;;14.84;62.10;100313.25;1750854;80;21550;-87
2021/07/31 00:32:55;;;;;;;16.82;8.83;;;;;;;14.81;62.20;100307.52;1750500;80;21817;-87
2021/07/31 00:35:22;;;;;;;10.18;7.20;;;;;;;14.78;62.35;100305.73;1742404;80;21491;-87
2021/07/31 00:37:49;;;;;;;18.07;7.08;;;;;;;14.76;62.42;100303.53;1761488;80;21486;-87
2021/07/31 00:40:16;;;;;;;14.68;7.25;;;;;;;14.74;62.47;100312.38;1757933;80;21392;-86
2021/07/31 00:42:42;;;;;;;10.53;6.78;;;;;;;14.73;62.64;100303.97;1745605;80;21013;-87
2021/07/31 00:45:10;;;;;;;12.05;6.28;;;;;;;14.71;62.66;100302.63;1750746;79;23040;-87
2021/07/31 00:47:40;;;;;;;11.40;6.20;;;;;;;14.69;62.71;100303.08;1750629;82;21064;-87
2021/07/31 00:50:08;;;;;;;14.53;6.70;;;;;;;14.67;62.83;100302.64;1750396;80;21087;-87
2021/07/31 00:52:35;;;;;;;15.18;6.17;;;;;;;14.65;62.95;100312.36;1750434;80;21598;-86
2021/07/31 00:55:02;;;;;;;11.65;6.45;;;;;;;14.64;63.04;100306.19;1777485;79;21021;-87
2021/07/31 00:57:28;;;;;;;8.58;5.30;;;;;;;14.61;63.09;100307.95;1777427;80;21134;-87
2021/07/31 00:59:55;;;;;;;10.20;6.50;;;;;;;14.55;63.19;100308.34;1756266;80;21042;-87
2021/07/31 01:02:22;;;;;;;13.32;5.47;;;;;;;14.50;63.21;100306.56;1756764;80;21036;-87
2021/07/31 01:04:49;;;;;;;10.80;6.10;;;;;;;14.47;63.32;100307.45;1755866;80;20997;-87
2021/07/31 01:07:15;;;;;;;11.55;5.22;;;;;;;14.44;63.44;100306.56;1762974;80;21060;-87
2021/07/31 01:09:42;;;;;;;8.13;4.72;;;;;;;14.41;63.54;100299.47;1741341;80;21826;-88
2021/07/31 01:12:09;;;;;;;7.42;4.83;;;;;;;14.40;63.56;100308.31;1754683;80;21040;-87
2021/07/31 01:14:36;;;;;;;9.90;4.97;;;;;;;14.39;63.64;100310.05;1779736;80;21053;-87
2021/07/31 01:17:03;;;;;;;10.68;4.50;;;;;;;14.36;63.74;100304.77;1753573;80;21530;-87
2021/07/31 01:19:30;;;;;;;8.13;4.90;;;;;;;14.36;63.77;100306.55;1761068;79;21099;-87
2021/07/31 01:21:57;;;;;;;9.98;5.90;;;;;;;14.34;63.87;100306.53;1743769;80;21798;-87
2021/07/31 01:24:23;;;;;;;11.18;5.85;;;;;;;14.30;63.89;100311.38;1747538;79;21020;-86
2021/07/31 01:26:50;;;;;;;10.88;5.17;;;;;;;14.27;64.07;100301.22;1751892;80;21060;-87
2021/07/31 01:29:17;;;;;;;16.70;5.22;;;;;;;14.24;64.09;100302.08;1776862;80;21633;-87
2021/07/31 01:31:45;;;;;;;10.50;5.25;;;;;;;14.22;64.15;100303.84;1753930;80;21040;-88
2021/07/31 01:34:12;;;;;;;10.65;5.15;;;;;;;14.21;64.27;100296.80;1750629;82;21883;-87
2021/07/31 01:36:38;;;;;;;9.88;4.30;;;;;;;14.19;64.30;100291.49;1750858;80;21525;-87
2021/07/31 01:39:05;;;;;;;10.98;4.90;;;;;;;14.17;64.41;100283.98;1750938;80;20989;-87
2021/07/31 01:41:32;;;;;;;8.50;5.12;;;;;;;14.17;64.47;100283.08;1754752;80;21013;-87
2021/07/31 01:43:58;;;;;;;7.33;4.97;;;;;;;14.17;64.58;100287.05;1766354;80;21117;-86
2021/07/31 01:46:25;;;;;;;11.70;4.87;;;;;;;14.18;64.62;100292.80;1749568;80;21725;-86
2021/07/31 01:48:52;;;;;;;14.80;5.00;;;;;;;14.17;64.64;100287.05;1758109;80;21033;-88
2021/07/31 01:51:19;;;;;;;14.10;5.47;;;;;;;14.16;64.71;100292.80;1740759;80;21063;-87
2021/07/31 01:53:46;;;;;;;11.12;4.72;;;;;;;14.14;64.79;100282.64;1747823;80;21527;-87
2021/07/31 01:56:13;;;;;;;8.83;5.00;;;;;;;14.15;64.86;100278.22;1750649;82;45479;-87
2021/07/31 01:58:40;;;;;;;11.53;5.17;;;;;;;14.13;64.87;100267.66;1751037;80;21836;-87
2021/07/31 02:01:07;;;;;;;10.45;4.45;;;;;;;14.13;64.94;100258.81;1750546;80;21566;-87
2021/07/31 02:03:33;;;;;;;11.20;4.25;;;;;;;14.13;65.01;100247.81;1751023;80;21017;-87
2021/07/31 02:06:00;;;;;;;10.08;4.70;;;;;;;14.13;65.01;100258.40;1747822;80;21045;-87
2021/07/31 02:08:27;;;;;;;8.03;4.25;;;;;;;14.12;65.00;100252.64;1756495;80;21077;-87
2021/07/31 02:10:54;;;;;;;12.80;4.47;;;;;;;14.12;65.02;100249.12;1750052;79;21844;-87
2021/07/31 02:13:20;;;;;;;9.63;4.70;;;;;;;14.11;65.08;100249.54;1753453;80;20998;-87
2021/07/31 02:15:47;;;;;;;7.78;4.45;;;;;;;14.11;65.15;100253.95;1772746;80;21020;-87
2021/07/31 02:18:14;;;;;;;6.47;4.37;;;;;;;14.08;65.21;100249.55;1750522;79;21367;-86
2021/07/31 02:20:41;;;;;;;8.73;5.05;;;;;;;14.07;65.28;100253.06;1747975;80;21025;-87
2021/07/31 02:23:08;;;;;;;8.15;4.83;;;;;;;14.04;65.25;100250.43;1750994;80;21774;-87
2021/07/31 02:25:34;;;;;;;11.78;4.90;;;;;;;14.02;65.34;100245.58;1761362;80;21041;-87
2021/07/31 02:28:01;;;;;;;8.23;4.28;;;;;;;14.00;65.47;100234.98;1766600;80;21024;-86
2021/07/31 02:30:28;;;;;;;11.45;5.37;;;;;;;14.01;65.55;100237.18;1761067;79;21246;-87
2021/07/31 02:32:54;;;;;;;7.80;4.90;;;;;;;13.98;65.63;100238.06;1752824;81;21495;-87
2021/07/31 02:35:21;;;;;;;9.50;4.90;;;;;;;14.00;65.79;100234.98;1747579;81;21795;-87
2021/07/31 02:37:48;;;;;;;9.15;4.80;;;;;;;14.03;65.91;100242.03;1779327;80;21104;-86
2021/07/31 02:40:15;;;;;;;16.10;4.67;;;;;;;14.04;65.99;100241.59;1777840;80;21530;-87
2021/07/31 02:42:41;;;;;;;9.85;5.87;;;;;;;14.02;66.03;100238.96;1777862;79;21191;-87
2021/07/31 02:45:08;;;;;;;9.40;5.15;;;;;;;14.03;66.07;100237.19;1754328;80;21025;-87
2021/07/31 02:47:35;;;;;;;12.43;5.17;;;;;;;14.02;66.08;100238.96;1761121;80;21757;-86
2021/07/31 02:50:02;;;;;;;10.90;5.00;;;;;;;14.03;66.19;100236.73;1750587;80;21562;-86
2021/07/31 02:52:29;;;;;;;7.62;4.85;;;;;;;14.04;66.17;100234.55;1750672;80;21608;-86
2021/07/31 02:54:55;;;;;;;9.35;4.50;;;;;;;14.05;66.17;100232.33;1755607;79;21125;-86
2021/07/31 02:57:22;;;;;;;6.80;4.20;;;;;;;14.07;66.19;100233.22;1771660;80;21490;-87
2021/07/31 02:59:49;;;;;;;8.90;5.17;;;;;;;14.08;66.20;100233.67;1749852;80;21758;-87
2021/07/31 03:02:16;;;;;;;12.43;5.10;;;;;;;14.10;66.25;100235.88;1750818;80;21072;-86
2021/07/31 03:04:42;;;;;;;9.75;4.03;;;;;;;14.12;66.18;100235.44;1772189;80;21044;-87
2021/07/31 03:07:09;;;;;;;9.85;4.87;;;;;;;14.11;66.17;100233.66;1750892;82;21065;-86
2021/07/31 03:09:36;;;;;;;7.55;4.35;;;;;;;14.10;66.12;100235.88;1760308;80;21037;-86
2021/07/31 03:12:03;;;;;;;7.28;4.15;;;;;;;14.09;66.16;100231.45;1755280;80;21841;-87
2021/07/31 03:14:30;;;;;;;6.47;4.10;;;;;;;14.11;66.18;100236.31;1755195;80;21017;-86
2021/07/31 03:16:56;;;;;;;7.95;4.15;;;;;;;14.10;66.26;100237.20;1763056;80;21151;-86
2021/07/31 03:19:23;;;;;;;7.72;4.25;;;;;;;14.11;66.26;100237.63;1761030;80;21028;-87
2021/07/31 03:21:50;;;;;;;11.05;5.17;;;;;;;14.13;66.27;100242.52;1761278;80;21478;-87
2021/07/31 03:24:16;;;;;;;8.38;4.75;;;;;;;14.16;66.32;100240.30;1760909;79;21851;-86
2021/07/31 03:26:43;;;;;;;7.03;4.25;;;;;;;14.21;66.39;100235.91;1768228;80;21115;-86
2021/07/31 03:29:10;;;;;;;7.70;4.25;;;;;;;14.28;66.41;100245.61;1750876;80;21494;-86
2021/07/31 03:31:36;;;;;;;9.38;4.58;;;;;;;14.36;66.45;100239.91;1776585;80;21123;-87
2021/07/31 03:34:03;;;;;;;10.23;4.92;;;;;;;14.42;66.35;100235.05;1774913;80;21009;-90
2021/07/31 03:36:30;;;;;;;12.43;5.37;;;;;;;14.52;66.40;100234.61;1757242;80;21816;-87
2021/07/31 03:38:57;;;;;;;7.95;4.33;;;;;;;14.70;66.44;100234.66;1759405;80;21112;-86
2021/07/31 03:41:23;;;;;;;7.97;4.25;;;;;;;14.91;66.40;100223.61;1761467;79;21110;-86
2021/07/31 03:43:50;;;;;;;15.32;4.72;;;;;;;15.43;67.13;100215.95;1751789;80;21488;-86
2021/07/31 03:46:17;;;;;;;17.15;4.83;;;;;;;16.41;66.94;100215.47;1749654;79;21506;-86
2021/07/31 03:48:44;;;;;;;9.83;4.00;;;;;;;17.43;66.02;100214.06;1750525;80;22563;-86
2021/07/31 03:51:10;;;;;;;14.30;4.17;;;;;;;18.74;65.49;100206.89;1750434;80;21024;-86
2021/07/31 03:53:37;;;;;;;6.47;3.92;;;;;;;20.14;64.07;100209.92;1749694;79;21009;-86
2021/07/31 03:56:05;;;;;;;10.30;3.62;;;;;;;21.48;62.08;100213.27;1749664;80;21053;-86
2021/07/31 03:58:32;;;;;;;10.18;3.85;;;;;;;22.66;60.45;100222.16;1758250;80;22636;-86
2021/07/31 04:00:59;;;;;;;8.98;3.95;;;;;;;23.84;58.55;100226.52;1775859;80;21778;-86
2021/07/31 04:03:25;;;;;;;9.48;3.35;;;;;;;24.84;56.47;100227.89;1755933;80;21021;-86
2021/07/31 04:05:52;;;;;;;8.53;3.90;;;;;;;25.70;54.50;100228.65;1750538;82;21064;-86
2021/07/31 04:08:19;;;;;;;4.67;3.67;;;;;;;26.34;52.98;100228.78;1750438;80;21061;-87
2021/07/31 04:10:45;;;;;;;5.92;4.20;;;;;;;27.72;49.96;100214.94;1750756;80;21079;-87
2021/07/31 04:13:12;;;;;;;4.65;3.52;;;;;;;27.72;49.96;100214.94;1756132;80;21697;-87
2021/07/31 04:15:41;;;;;;;8.53;3.95;;;;;;;28.48;48.59;100236.44;1758054;79;21060;-87
2021/07/31 04:18:08;;;;;;;7.03;3.60;;;;;;;29.19;47.37;100240.45;1750479;80;21027;-87
2021/07/31 04:20:35;;;;;;;5.67;3.83;;;;;;;29.96;46.09;100239.27;1765158;80;21184;-86
2021/07/31 04:23:01;;;;;;;7.03;3.80;;;;;;;30.53;44.55;100241.00;1738259;82;21001;-87
2021/07/31 04:25:28;;;;;;;6.60;3.83;;;;;;;31.10;43.33;100239.03;1757993;81;22473;-87
2021/07/31 04:27:55;;;;;;;9.23;3.70;;;;;;;31.72;42.16;100236.50;1750304;79;21060;-87
2021/07/31 04:30:22;;;;;;;8.73;3.90;;;;;;;32.20;41.04;100234.42;1750653;82;21486;-87
2021/07/31 04:32:48;;;;;;;8.48;4.00;;;;;;;32.63;40.02;100228.52;1750755;82;21514;-87
2021/07/31 04:35:15;;;;;;;11.48;3.85;;;;;;;33.24;39.25;100229.77;1750396;80;21049;-85
2021/07/31 04:37:42;;;;;;;5.40;3.98;;;;;;;33.86;38.37;100233.07;1750648;82;21762;-85
2021/07/31 04:40:11;;;;;;;8.33;4.20;;;;;;;34.54;37.13;100237.09;1755068;80;21009;-84
2021/07/31 04:42:37;;;;;;;7.05;4.50;;;;;;;34.94;36.36;100240.09;1770088;79;21072;-85
2021/07/31 04:45:06;;;;;;;8.63;4.58;;;;;;;35.52;35.41;100238.29;1777193;80;20997;-85
2021/07/31 04:47:37;;;;;;;9.58;4.47;;;;;;;35.88;34.08;100226.45;1762723;80;21072;-85
2021/07/31 04:50:09;;;;;;;8.70;4.33;;;;;;;35.57;33.41;100231.02;1753971;79;21963;-85
2021/07/31 04:52:36;;;;;;;7.87;4.28;;;;;;;35.97;33.08;100235.21;1749691;80;21014;-85
2021/07/31 04:55:06;;;;;;;7.67;4.97;;;;;;;36.55;32.35;100224.08;1766174;80;21534;-87
2021/07/31 04:57:34;;;;;;;12.45;4.45;;;;;;;37.12;31.63;100233.31;1777929;80;21502;-87
2021/07/31 05:00:01;;;;;;;10.63;4.42;;;;;;;37.05;30.84;100232.68;1772043;79;21033;-87
2021/07/31 05:02:32;;;;;;;9.15;4.15;;;;;;;37.14;30.55;100237.33;1777806;80;21798;-87
2021/07/31 05:04:59;;;;;;;6.75;3.98;;;;;;;37.74;30.11;100239.30;1752824;80;21043;-86
2021/07/31 05:07:26;;;;;;;7.17;3.85;;;;;;;38.48;29.54;100237.99;1761021;81;21165;-87
2021/07/31 05:09:53;;;;;;;8.38;4.05;;;;;;;39.00;28.86;100240.97;1772248;80;21041;-87
2021/07/31 05:12:19;;;;;;;7.35;4.67;;;;;;;39.37;27.90;100238.52;1777427;80;21036;-86
2021/07/31 05:14:54;;;;;;;9.60;4.22;;;;;;;39.63;27.47;100244.06;1752027;80;21740;-87
2021/07/31 05:17:21;;;;;;;9.83;4.95;;;;;;;40.00;27.09;100243.41;1750372;80;20989;-87
2021/07/31 05:19:48;;;;;;;7.83;4.20;;;;;;;40.35;26.42;100237.37;1754456;81;21075;-87
2021/07/31 05:22:15;;;;;;;9.60;3.80;;;;;;;40.71;26.29;100238.47;1749421;80;21051;-86
2021/07/31 05:24:42;;;;;;;11.40;3.87;;;;;;;41.07;25.61;100236.80;1750510;82;21534;-85
2021/07/31 05:27:09;;;;;;;10.38;3.95;;;;;;;41.43;25.14;100232.30;1777793;79;21723;-84
2021/07/31 05:29:36;;;;;;;4.95;3.45;;;;;;;41.80;24.73;100238.62;1758953;79;21107;-87
2021/07/31 05:32:03;;;;;;;8.45;3.90;;;;;;;41.92;24.07;100242.73;1776287;79;21554;-86
2021/07/31 05:34:30;;;;;;;7.83;3.90;;;;;;;41.95;23.80;100238.25;1777165;79;20989;-85
2021/07/31 05:36:56;;;;;;;10.13;3.98;;;;;;;42.10;23.52;100237.50;1777505;80;21326;-86
2021/07/31 05:39:23;;;;;;;6.45;3.92;;;;;;;42.33;23.08;100236.20;1743942;80;22516;-85
2021/07/31 05:41:50;;;;;;;10.72;4.15;;;;;;;41.34;22.33;100234.23;1777364;79;20997;-86
2021/07/31 05:44:16;;;;;;;10.48;4.33;;;;;;;39.26;22.43;100226.39;1777383;80;21089;-86
2021/07/31 05:46:43;;;;;;;8.40;4.05;;;;;;;37.08;23.21;100225.02;1765071;80;21535;-87
2021/07/31 05:49:10;;;;;;;9.58;4.05;;;;;;;35.22;24.02;100218.59;1776482;79;21008;-86
2021/07/31 05:51:37;;;;;;;8.23;4.45;;;;;;;33.62;24.97;100211.34;1778038;79;22554;-86
2021/07/31 05:54:04;;;;;;;8.53;4.90;;;;;;;32.37;25.77;100211.88;1748601;80;21012;-86
2021/07/31 05:56:30;;;;;;;14.78;4.45;;;;;;;31.17;26.66;100207.23;1777332;80;20993;-86
2021/07/31 05:58:57;;;;;;;7.00;4.35;;;;;;;30.28;27.63;100202.37;1777565;80;21017;-86
2021/07/31 06:01:24;;;;;;;17.20;5.55;;;;;;;29.52;28.56;100204.93;1763780;80;21028;-86
2021/07/31 06:03:50;;;;;;;10.30;4.92;;;;;;;28.82;29.41;100196.08;1777477;79;22611;-86
2021/07/31 06:06:17;;;;;;;6.28;4.12;;;;;;;28.20;30.19;100189.30;1773650;80;21047;-86
2021/07/31 06:08:44;;;;;;;10.50;4.87;;;;;;;27.72;30.97;100184.30;1768871;80;21036;-86
2021/07/31 06:11:10;;;;;;;15.40;5.08;;;;;;;27.28;31.81;100192.53;1755167;80;21547;-86
2021/07/31 06:13:37;;;;;;;11.68;4.58;;;;;;;26.94;32.35;100195.63;1771095;80;21047;-85
2021/07/31 06:16:09;;;;;;;13.40;4.97;;;;;;;26.71;33.01;100197.27;1771555;80;21763;-86
2021/07/31 06:18:39;;;;;;;7.97;4.85;;;;;;;26.40;33.28;100212.28;1763226;80;20993;-85
2021/07/31 06:21:15;;;;;;;10.65;4.72;;;;;;;26.15;33.90;100213.48;1776932;80;21126;-86
2021/07/31 06:23:42;;;;;;;7.70;4.20;;;;;;;25.94;34.26;100215.40;1775145;79;21441;-86
2021/07/31 06:26:09;;;;;;;9.20;4.30;;;;;;;25.72;34.82;100213.28;1757870;80;21012;-86
2021/07/31 06:28:36;;;;;;;10.75;5.47;;;;;;;25.63;35.31;100212.34;1754532;80;21778;-87
2021/07/31 06:31:04;;;;;;;8.25;4.10;;;;;;;25.56;35.67;100204.52;1750672;80;21629;-86
2021/07/31 06:33:31;;;;;;;8.38;3.80;;;;;;;25.59;35.87;100205.74;1750438;80;21013;-85
2021/07/31 06:35:57;;;;;;;9.73;3.90;;;;;;;25.67;36.13;100208.08;1750682;80;21013;-85
2021/07/31 06:38:24;;;;;;;8.35;4.03;;;;;;;25.85;36.15;100205.49;1750558;80;21503;-86
2021/07/31 06:40:51;;;;;;;8.83;3.65;;;;;;;26.02;36.22;100208.77;1750757;80;21964;-85
2021/07/31 06:43:17;;;;;;;6.58;5.20;;;;;;;26.20;36.33;100203.81;1754924;79;21020;-87
2021/07/31 06:45:44;;;;;;;8.50;4.53;;;;;;;26.30;36.25;100197.52;1765118;80;21071;-86
2021/07/31 06:48:11;;;;;;;9.30;4.72;;;;;;;26.34;36.31;100193.23;1772798;80;21457;-85
2021/07/31 06:50:37;;;;;;;7.45;4.05;;;;;;;26.53;36.59;100197.71;1754137;80;21040;-86
2021/07/31 06:53:04;;;;;;;6.78;3.65;;;;;;;26.73;36.59;100193.56;1750485;79;22582;-87
2021/07/31 06:55:31;;;;;;;14.30;4.50;;;;;;;26.84;36.53;100198.42;1750223;80;21322;-86
2021/07/31 06:57:57;;;;;;;8.80;3.60;;;;;;;26.88;36.14;100201.80;1753886;80;21566;-86
2021/07/31 07:00:24;;;;;;;6.95;3.40;;;;;;;26.89;36.22;100198.17;1750348;79;21425;-87
2021/07/31 07:02:51;;;;;;;8.23;3.40;;;;;;;26.88;36.27;100195.95;1763588;79;21553;-86
2021/07/31 07:05:18;;;;;;;9.80;4.28;;;;;;;26.93;36.25;100194.34;1777016;80;21857;-86
2021/07/31 07:07:44;;;;;;;10.23;4.20;;;;;;;26.95;36.37;100191.98;1756773;80;21014;-86
2021/07/31 07:10:13;;;;;;;6.08;3.42;;;;;;;27.00;36.39;100189.52;1776981;79;21082;-86
2021/07/31 07:12:39;;;;;;;8.48;3.80;;;;;;;27.08;36.50;100185.44;1762758;80;20974;-87
2021/07/31 07:15:07;;;;;;;11.78;4.15;;;;;;;27.20;36.40;100181.23;1760583;80;21024;-86
2021/07/31 07:17:34;;;;;;;10.43;3.45;;;;;;;27.42;36.44;100175.56;1750455;79;21966;-86
2021/07/31 07:20:00;;;;;;;7.85;3.52;;;;;;;27.71;36.23;100178.03;1756799;80;20989;-87
2021/07/31 07:22:27;;;;;;;8.25;3.22;;;;;;;27.97;35.95;100185.20;1750920;80;21005;-86
2021/07/31 07:24:54;;;;;;;7.28;3.52;;;;;;;28.12;35.64;100183.46;1777377;80;21414;-87
2021/07/31 07:27:21;;;;;;;8.83;2.85;;;;;;;28.21;35.29;100182.94;1748463;80;21088;-87
2021/07/31 07:29:47;;;;;;;7.65;3.85;;;;;;;28.16;34.99;100178.27;1756093;80;21772;-87
2021/07/31 07:32:14;;;;;;;8.75;3.40;;;;;;;28.17;35.18;100174.58;1758767;80;21000;-87
2021/07/31 07:34:41;;;;;;;8.63;3.37;;;;;;;28.16;35.25;100170.14;1766837;79;21099;-86
2021/07/31 07:37:07;;;;;;;6.72;3.65;;;;;;;28.09;35.41;100171.45;1761207;79;21080;-86
2021/07/31 07:39:34;;;;;;;6.70;2.98;;;;;;;27.95;35.44;100170.90;1760947;79;20996;-86
2021/07/31 07:42:04;;;;;;;8.33;2.90;;;;;;;27.83;35.62;100167.48;1767081;80;21685;-86
2021/07/31 07:44:31;;;;;;;8.35;2.92;;;;;;;27.71;35.80;100168.56;1759044;80;21573;-87
2021/07/31 07:46:57;;;;;;;11.30;4.60;;;;;;;27.72;36.13;100167.62;1766823;80;21530;-87
2021/07/31 07:49:24;;;;;;;11.48;4.50;;;;;;;27.82;36.21;100165.27;1778518;80;21553;-88
2021/07/31 07:51:51;;;;;;;12.25;4.10;;;;;;;27.91;36.13;100155.32;1771795;80;21056;-86
2021/07/31 07:54:17;;;;;;;8.15;3.17;;;;;;;28.01;35.83;100152.95;1773574;80;21755;-92
2021/07/31 07:56:44;;;;;;;8.78;3.30;;;;;;;28.06;35.74;100149.97;1773245;80;20989;-87
2021/07/31 07:59:11;;;;;;;8.45;3.42;;;;;;;28.19;35.69;100152.84;1761107;81;21032;-86
2021/07/31 08:01:37;;;;;;;6.55;3.00;;;;;;;28.35;35.46;100152.35;1761146;79;21055;-87
2021/07/31 08:04:04;;;;;;;8.55;3.45;;;;;;;28.48;35.08;100149.80;1773493;79;21020;-87
2021/07/31 08:06:31;;;;;;;6.50;3.00;;;;;;;28.57;35.00;100143.88;1760860;80;21418;-87
2021/07/31 08:08:58;;;;;;;4.95;2.42;;;;;;;28.70;34.93;100135.89;1769932;80;21035;-87
2021/07/31 08:11:25;;;;;;;5.85;2.87;;;;;;;28.74;34.78;100146.03;1760956;79;21073;-86
2021/07/31 08:13:51;;;;;;;6.00;2.47;;;;;;;28.83;34.72;100145.02;1771090;80;21072;-87
2021/07/31 08:16:18;;;;;;;8.15;3.52;;;;;;;29.00;34.80;100141.73;1769464;80;21066;-86
2021/07/31 08:18:45;;;;;;;14.05;2.80;;;;;;;29.14;34.43;100137.73;1760497;79;22426;-87
2021/07/31 08:21:11;;;;;;;7.55;2.55;;;;;;;29.03;34.32;100145.62;1754177;80;21000;-87
2021/07/31 08:23:38;;;;;;;4.97;3.20;;;;;;;28.98;34.53;100137.79;1749976;82;21063;-87
2021/07/31 08:26:08;;;;;;;7.80;2.83;;;;;;;29.00;34.62;100148.05;1757725;79;21503;-87
2021/07/31 08:28:34;;;;;;;8.80;3.12;;;;;;;29.00;34.59;100143.98;1750457;81;21056;-87
2021/07/31 08:31:01;;;;;;;7.22;2.80;;;;;;;28.99;34.53;100139.52;1760625;80;21801;-87
2021/07/31 08:33:27;;;;;;;10.93;3.62;;;;;;;29.03;34.65;100143.77;1750612;80;21025;-87
2021/07/31 08:35:59;;;;;;;13.13;3.30;;;;;;;29.13;34.74;100140.06;1760352;80;21088;-87
2021/07/31 08:38:25;;;;;;;6.05;2.77;;;;;;;29.16;34.74;100142.56;1750588;82;21055;-87
2021/07/31 08:40:52;;;;;;;13.45;3.58;;;;;;;29.28;34.67;100144.98;1777430;80;21103;-87
2021/07/31 08:43:19;;;;;;;6.70;3.08;;;;;;;29.31;34.54;100144.80;1774445;80;21886;-87
2021/07/31 08:45:46;;;;;;;6.35;2.85;;;;;;;29.35;34.47;100146.34;1770912;80;21455;-87
2021/07/31 08:48:13;;;;;;;6.00;2.90;;;;;;;29.31;34.38;100141.23;1772105;79;20978;-87
2021/07/31 08:50:39;;;;;;;5.33;3.17;;;;;;;29.13;34.40;100145.48;1760990;80;21533;-86
2021/07/31 08:53:07;;;;;;;5.30;2.50;;;;;;;28.98;34.66;100142.31;1750483;81;21561;-87
2021/07/31 08:55:34;;;;;;;5.42;3.33;;;;;;;28.84;34.76;100136.39;1771292;80;21768;-87
2021/07/31 08:58:01;;;;;;;10.25;3.22;;;;;;;28.85;35.00;100135.41;1753748;80;21120;-88
2021/07/31 09:00:28;;;;;;;6.35;3.27;;;;;;;28.91;35.13;100131.00;1750603;80;21052;-87
2021/07/31 09:02:54;;;;;;;11.03;3.65;;;;;;;29.03;35.23;100125.30;1752078;80;21001;-87
2021/07/31 09:05:41;;;;;;;6.12;2.62;;;;;;;29.02;35.21;100131.20;1776612;79;21589;-87
2021/07/31 09:08:08;;;;;;;10.65;3.52;;;;;;;28.98;35.27;100131.02;1751249;80;21808;-88
2021/07/31 09:10:42;;;;;;;4.75;2.80;;;;;;;28.90;35.57;100136.02;1750385;80;22263;-87
2021/07/31 09:13:14;;;;;;;6.08;2.50;;;;;;;28.91;35.69;100128.78;1749913;80;21279;-87
2021/07/31 09:15:44;;;;;;;5.75;3.33;;;;;;;28.91;35.82;100120.16;1776558;80;21028;-86
2021/07/31 09:18:29;;;;;;;4.80;2.42;;;;;;;28.94;36.03;100113.67;1750453;79;20997;-86
2021/07/31 09:21:12;;;;;;;5.60;2.75;;;;;;;28.95;36.06;100117.64;1765987;80;21825;-86
2021/07/31 09:23:54;;;;;;;4.58;3.17;;;;;;;28.97;36.26;100110.78;1763792;80;21000;-85
2021/07/31 09:26:33;;;;;;;4.10;2.42;;;;;;;28.99;36.41;100107.00;1769637;80;21028;-85
2021/07/31 09:29:08;;;;;;;4.15;2.55;;;;;;;29.06;36.52;100107.02;1777627;80;21012;-83
2021/07/31 09:31:34;;;;;;;5.22;2.55;;;;;;;29.15;36.69;100106.97;1762099;80;21056;-83
2021/07/31 09:34:02;;;;;;;5.83;2.80;;;;;;;29.32;36.80;100107.25;1691547;82;21833;-83
2021/07/31 09:36:40;;;;;;;9.50;2.60;;;;;;;29.36;36.73;100099.80;1760388;80;21024;-83
2021/07/31 09:39:10;;;;;;;8.05;2.80;;;;;;;29.32;36.83;100100.94;1777423;80;21024;-83
2021/07/31 09:41:38;;;;;;;6.58;3.10;;;;;;;29.22;36.97;100099.30;1759391;80;21041;-83
2021/07/31 09:44:13;;;;;;;6.00;2.90;;;;;;;29.07;36.99;100098.39;1779871;80;21024;-83
2021/07/31 09:46:46;;;;;;;5.35;3.12;;;;;;;28.87;36.96;100103.22;1750485;80;22744;-83
2021/07/31 09:49:19;;;;;;;7.75;3.45;;;;;;;28.71;37.21;100101.55;1750727;82;21056;-83
2021/07/31 09:51:50;;;;;;;6.42;3.02;;;;;;;28.56;37.40;100101.99;1750568;79;21061;-83
2021/07/31 09:54:21;;;;;;;6.03;3.27;;;;;;;28.46;37.48;100097.09;1750503;81;21069;-84
2021/07/31 09:56:55;;;;;;;8.18;3.58;;;;;;;28.38;37.49;100091.73;1750575;80;21092;-84
2021/07/31 09:59:23;;;;;;;8.98;3.22;;;;;;;28.28;37.75;100089.58;1756915;80;21751;-84
2021/07/31 10:02:03;;;;;;;10.45;3.40;;;;;;;28.11;37.78;100093.77;1750776;82;21037;-84
2021/07/31 10:04:32;;;;;;;7.55;3.12;;;;;;;27.98;38.10;100099.51;1760619;79;20984;-83
2021/07/31 10:07:03;;;;;;;9.65;3.83;;;;;;;27.85;38.36;100092.54;1773402;80;21008;-83
2021/07/31 10:09:31;;;;;;;13.08;5.03;;;;;;;27.80;38.81;100094.63;1760901;80;20985;-83
2021/07/31 10:11:58;;;;;;;7.40;4.05;;;;;;;27.77;39.01;100090.77;1699413;81;22041;-83
2021/07/31 10:14:25;;;;;;;7.05;3.92;;;;;;;27.72;38.94;100083.80;1766028;79;21037;-83
2021/07/31 10:16:52;;;;;;;6.30;3.30;;;;;;;27.59;39.22;100082.75;1761584;80;21060;-83
2021/07/31 10:19:18;;;;;;;6.83;4.03;;;;;;;27.54;39.55;100080.78;1766502;79;21009;-82
2021/07/31 10:21:58;;;;;;;6.40;3.70;;;;;;;27.49;39.60;100083.72;1750641;79;21467;-83
2021/07/31 10:24:25;;;;;;;10.48;3.70;;;;;;;27.42;39.80;100079.61;1769274;80;21821;-83
2021/07/31 10:27:22;;;;;;;8.35;3.75;;;;;;;27.38;39.84;100085.28;1762259;80;21108;-83
2021/07/31 10:29:56;;;;;;;11.73;3.47;;;;;;;27.26;39.83;100082.31;1762349;79;21518;-83
2021/07/31 10:32:32;;;;;;;;;;;;;;;27.10;40.04;100075.95;1762459;80;21040;-83
2021/07/31 10:35:04;;;;;;;5.15;3.50;;;;;;;26.98;40.52;100072.10;1759003;81;20211;-83
2021/07/31 10:37:36;;;;;;;10.80;3.77;;;;;;;27.02;40.80;100070.98;1760755;81;22021;-83
2021/07/31 10:40:33;;;;;;;5.85;4.08;;;;;;;27.17;40.95;100068.41;1761273;81;21091;-84
2021/07/31 10:43:03;;;;;;;9.35;3.90;;;;;;;27.28;41.20;100062.83;1757834;81;21021;-83
2021/07/31 10:45:33;;;;;;;9.35;5.35;;;;;;;27.39;41.16;100060.02;1776119;80;21009;-83
2021/07/31 10:48:03;;;;;;;8.55;3.98;;;;;;;27.40;40.94;100054.50;1763787;80;21020;-83
2021/07/31 10:50:37;;;;;;;7.92;4.20;;;;;;;27.47;40.94;100054.56;1776239;80;21820;-83
2021/07/31 10:53:06;;;;;;;5.97;3.67;;;;;;;27.51;40.83;100049.37;1766230;80;21036;-84
2021/07/31 10:55:47;;;;;;;10.20;5.65;;;;;;;27.56;40.87;100036.95;1760767;80;21052;-83
2021/07/31 10:58:15;;;;;;;5.80;3.58;;;;;;;27.61;40.81;100040.28;1778002;80;21376;-84
2021/07/31 11:00:47;;;;;;;8.18;3.80;;;;;;;27.68;40.87;100030.83;1769715;80;21067;-84
2021/07/31 11:03:23;;;;;;;7.80;4.15;;;;;;;27.73;40.87;100025.17;1761183;81;21784;-84
2021/07/31 11:06:00;;;;;;;7.40;3.42;;;;;;;27.80;40.74;100017.09;1763598;80;21538;-84
2021/07/31 11:08:35;;;;;;;5.17;4.03;;;;;;;27.86;40.75;100014.02;1740989;80;21581;-84
2021/07/31 11:11:21;;;;;;;4.78;3.58;;;;;;;27.92;40.84;100010.98;1754438;80;21060;-84
2021/07/31 11:13:51;;;;;;;7.03;3.52;;;;;;;27.98;40.72;100002.98;1744266;80;21010;-84
2021/07/31 11:16:21;;;;;;;8.65;3.52;;;;;;;28.03;40.70;100001.38;1750615;80;21295;-84
2021/07/31 11:18:52;;;;;;;8.55;3.98;;;;;;;28.09;40.68;99992.39;1750607;80;21009;-84
2021/07/31 11:21:31;;;;;;;9.65;4.62;;;;;;;28.22;40.55;99998.44;1750214;80;21020;-84
2021/07/31 11:24:09;;;;;;;9.48;3.83;;;;;;;28.36;40.19;99997.59;1768487;80;21008;-84
2021/07/31 11:26:49;;;;;;;13.58;4.70;;;;;;;28.41;39.90;99982.80;1751599;80;21044;-84